createdAt,value
2019-06-26T00:00:30.741Z,975.80
2019-06-26T00:01:30.791Z,975.83
2019-06-26T00:02:30.848Z,975.79
2019-06-26T00:03:30.914Z,975.87
2019-06-26T00:04:30.952Z,975.86
2019-06-26T00:05:31.004Z,975.87
2019-06-26T00:06:31.051Z,975.83
2019-06-26T00:07:31.106Z,975.86
2019-06-26T00:08:31.213Z,975.81
2019-06-26T00:09:31.204Z,975.87
2019-06-26T00:10:31.258Z,975.90
2019-06-26T00:11:31.308Z,975.89
2019-06-26T00:12:31.362Z,975.92
2019-06-26T00:13:31.926Z,975.96
2019-06-26T00:14:31.496Z,975.94
2019-06-26T00:15:31.516Z,975.99
2019-06-26T00:16:31.571Z,975.96
2019-06-26T00:17:31.622Z,975.93
2019-06-26T00:18:31.682Z,975.96
2019-06-26T00:19:31.751Z,975.97
2019-06-26T00:20:31.777Z,975.99
2019-06-26T00:21:31.834Z,975.96
2019-06-26T00:22:31.879Z,975.97
2019-06-26T00:23:31.930Z,975.98
2019-06-26T00:24:32.002Z,975.98
2019-06-26T00:25:32.040Z,976.00
2019-06-26T00:26:32.088Z,976.00
2019-06-26T00:27:32.139Z,976.04
2019-06-26T00:28:32.189Z,976.02
2019-06-26T00:29:32.262Z,976.06
2019-06-26T00:30:32.296Z,976.05
2019-06-26T00:31:32.345Z,976.02
2019-06-26T00:32:32.404Z,976.05
2019-06-26T00:33:32.449Z,976.05
2019-06-26T00:34:32.523Z,976.05
2019-06-26T00:35:32.555Z,976.04
2019-06-26T00:36:32.603Z,976.05
2019-06-26T00:37:32.655Z,976.08
2019-06-26T00:38:32.719Z,976.13
2019-06-26T00:39:32.781Z,976.11
2019-06-26T00:40:32.849Z,976.12
2019-06-26T00:41:32.867Z,976.12
2019-06-26T00:42:32.914Z,976.12
2019-06-26T00:43:41.921Z,976.08
2019-06-26T00:44:33.038Z,976.14
2019-06-26T00:45:33.072Z,976.14
2019-06-26T00:46:33.145Z,976.13
2019-06-26T00:47:33.175Z,976.15
2019-06-26T00:48:33.227Z,976.15
2019-06-26T00:49:33.310Z,976.20
2019-06-26T00:50:33.337Z,976.22
2019-06-26T00:51:33.383Z,976.18
2019-06-26T00:52:33.433Z,976.21
2019-06-26T00:53:33.487Z,976.21
2019-06-26T00:54:33.578Z,976.24
2019-06-26T00:55:33.587Z,976.23
2019-06-26T00:56:33.640Z,976.18
2019-06-26T00:57:33.689Z,976.20
2019-06-26T00:58:33.770Z,976.20
2019-06-26T00:59:33.836Z,976.24
2019-06-26T01:00:33.854Z,976.23
2019-06-26T01:01:33.901Z,976.26
2019-06-26T01:02:33.950Z,976.25
2019-06-26T01:03:34.001Z,976.31
2019-06-26T01:04:34.070Z,976.34
2019-06-26T01:05:34.126Z,976.33
2019-06-26T01:06:34.157Z,976.28
2019-06-26T01:07:34.206Z,976.29
2019-06-26T01:08:34.262Z,976.32
2019-06-26T01:09:34.312Z,976.29
2019-06-26T01:10:34.398Z,976.29
2019-06-26T01:11:34.426Z,976.30
2019-06-26T01:12:34.471Z,976.33
2019-06-26T01:13:34.602Z,976.29
2019-06-26T01:14:34.592Z,976.33
2019-06-26T01:15:34.659Z,976.32
2019-06-26T01:16:35.419Z,976.33
2019-06-26T01:17:34.724Z,976.36
2019-06-26T01:18:34.775Z,976.35
2019-06-26T01:19:34.826Z,976.38
2019-06-26T01:20:34.968Z,976.40
2019-06-26T01:21:34.930Z,976.40
2019-06-26T01:22:34.983Z,976.40
2019-06-26T01:23:35.036Z,976.43
2019-06-26T01:24:35.097Z,976.38
2019-06-26T01:25:35.158Z,976.43
2019-06-26T01:26:35.191Z,976.40
2019-06-26T01:27:35.244Z,976.43
2019-06-26T01:28:35.296Z,976.38
2019-06-26T01:29:35.343Z,976.41
2019-06-26T01:30:35.454Z,976.42
2019-06-26T01:31:35.450Z,976.44
2019-06-26T01:32:35.497Z,976.46
2019-06-26T01:33:35.563Z,976.45
2019-06-26T01:34:35.601Z,976.48
2019-06-26T01:35:35.675Z,976.48
2019-06-26T01:36:35.725Z,976.47
2019-06-26T01:37:35.758Z,976.47
2019-06-26T01:38:35.809Z,976.47
2019-06-26T01:39:35.860Z,976.49
2019-06-26T01:40:35.953Z,976.50
2019-06-26T01:41:35.964Z,976.49
2019-06-26T01:42:36.013Z,976.54
2019-06-26T01:43:36.070Z,976.52
2019-06-26T01:44:36.117Z,976.54
2019-06-26T01:45:36.196Z,976.51
2019-06-26T01:46:36.222Z,976.51
2019-06-26T01:47:36.272Z,976.55
2019-06-26T01:48:36.320Z,976.55
2019-06-26T01:49:36.379Z,976.52
2019-06-26T01:50:36.455Z,976.55
2019-06-26T01:51:36.497Z,976.55
2019-06-26T01:52:36.528Z,976.58
2019-06-26T01:53:36.582Z,976.58
2019-06-26T01:54:36.632Z,976.59
2019-06-26T01:55:36.685Z,976.59
2019-06-26T01:56:36.755Z,976.59
2019-06-26T01:57:36.790Z,976.60
2019-06-26T01:58:36.839Z,976.63
2019-06-26T01:59:36.889Z,976.62
2019-06-26T02:00:36.940Z,976.61
2019-06-26T02:01:37.018Z,976.65
2019-06-26T02:02:37.042Z,976.62
2019-06-26T02:03:37.094Z,976.65
2019-06-26T02:04:37.154Z,976.70
2019-06-26T02:05:37.204Z,976.69
2019-06-26T02:06:37.270Z,976.72
2019-06-26T02:07:37.312Z,976.73
2019-06-26T02:08:37.352Z,976.71
2019-06-26T02:09:37.420Z,976.72
2019-06-26T02:10:37.455Z,976.74
2019-06-26T02:11:37.548Z,976.77
2019-06-26T02:12:37.554Z,976.77
2019-06-26T02:13:37.610Z,976.75
2019-06-26T02:14:37.662Z,976.72
2019-06-26T02:15:37.710Z,976.77
2019-06-26T02:16:37.782Z,976.77
2019-06-26T02:17:37.814Z,976.75
2019-06-26T02:18:37.871Z,976.76
2019-06-26T02:19:37.919Z,976.76
2019-06-26T02:20:37.981Z,976.80
2019-06-26T02:21:38.046Z,976.80
2019-06-26T02:22:38.076Z,976.79
2019-06-26T02:23:38.123Z,976.82
2019-06-26T02:24:38.172Z,976.82
2019-06-26T02:25:38.237Z,976.84
2019-06-26T02:26:38.296Z,976.83
2019-06-26T02:27:38.327Z,976.80
2019-06-26T02:28:38.380Z,976.82
2019-06-26T02:29:38.441Z,976.82
2019-06-26T02:30:38.485Z,976.84
2019-06-26T02:31:38.556Z,976.87
2019-06-26T02:32:38.585Z,976.88
2019-06-26T02:33:38.638Z,976.88
2019-06-26T02:34:38.700Z,976.85
2019-06-26T02:35:38.739Z,976.86
2019-06-26T02:36:38.824Z,976.87
2019-06-26T02:37:38.842Z,976.90
2019-06-26T02:38:38.910Z,976.89
2019-06-26T02:39:38.947Z,976.91
2019-06-26T02:40:38.995Z,976.92
2019-06-26T02:41:39.069Z,976.90
2019-06-26T02:42:39.121Z,976.93
2019-06-26T02:43:39.149Z,976.98
2019-06-26T02:44:52.434Z,976.95
2019-06-26T02:45:39.253Z,976.95
2019-06-26T02:46:39.343Z,976.97
2019-06-26T02:47:39.378Z,976.96
2019-06-26T02:48:39.495Z,976.96
2019-06-26T02:49:39.460Z,976.99
2019-06-26T02:50:39.507Z,976.96
2019-06-26T02:51:39.563Z,976.97
2019-06-26T02:52:39.646Z,976.98
2019-06-26T02:53:39.693Z,976.98
2019-06-26T02:54:39.714Z,976.97
2019-06-26T02:55:39.771Z,977.03
2019-06-26T02:56:41.646Z,976.99
2019-06-26T02:57:39.891Z,977.01
2019-06-26T02:58:39.922Z,977.04
2019-06-26T02:59:40.009Z,977.02
2019-06-26T03:00:40.023Z,977.02
2019-06-26T03:01:40.074Z,977.00
2019-06-26T03:02:40.147Z,977.00
2019-06-26T03:03:40.185Z,977.01
2019-06-26T03:04:40.239Z,977.03
2019-06-26T03:05:40.281Z,977.00
2019-06-26T03:06:40.334Z,977.01
2019-06-26T03:07:40.415Z,977.00
2019-06-26T03:08:40.453Z,977.01
2019-06-26T03:09:40.485Z,977.02
2019-06-26T03:10:40.540Z,977.03
2019-06-26T03:11:40.590Z,977.01
2019-06-26T03:12:40.639Z,977.00
2019-06-26T03:13:40.713Z,977.02
2019-06-26T03:14:40.757Z,977.00
2019-06-26T03:15:40.792Z,977.00
2019-06-26T03:16:40.845Z,977.02
2019-06-26T03:17:54.283Z,977.01
2019-06-26T03:18:40.968Z,977.03
2019-06-26T03:19:41.004Z,977.05
2019-06-26T03:20:41.047Z,976.99
2019-06-26T03:21:41.099Z,977.01
2019-06-26T03:22:41.152Z,977.04
2019-06-26T03:23:41.236Z,977.01
2019-06-26T03:24:41.253Z,977.02
2019-06-26T03:25:41.308Z,977.05
2019-06-26T03:26:41.354Z,977.04
2019-06-26T03:27:41.405Z,977.07
2019-06-26T03:28:41.482Z,977.05
2019-06-26T03:29:41.513Z,977.06
2019-06-26T03:30:41.561Z,977.06
2019-06-26T03:31:41.612Z,977.06
2019-06-26T03:32:41.662Z,977.12
2019-06-26T03:33:41.735Z,977.10
2019-06-26T03:34:41.790Z,977.10
2019-06-26T03:35:41.817Z,977.12
2019-06-26T03:36:41.895Z,977.11
2019-06-26T03:37:41.921Z,977.08
2019-06-26T03:38:41.998Z,977.08
2019-06-26T03:39:42.037Z,977.11
2019-06-26T03:40:42.071Z,977.09
2019-06-26T03:41:42.136Z,977.12
2019-06-26T03:42:42.183Z,977.16
2019-06-26T03:43:42.251Z,977.14
2019-06-26T03:44:42.281Z,977.14
2019-06-26T03:45:42.349Z,977.15
2019-06-26T03:46:42.383Z,977.15
2019-06-26T03:47:42.431Z,977.14
2019-06-26T03:48:42.486Z,977.12
2019-06-26T03:49:42.580Z,977.15
2019-06-26T03:50:42.599Z,977.14
2019-06-26T03:51:42.645Z,977.16
2019-06-26T03:52:42.689Z,977.17
2019-06-26T03:53:42.759Z,977.18
2019-06-26T03:54:42.809Z,977.17
2019-06-26T03:55:42.862Z,977.18
2019-06-26T03:56:42.893Z,977.19
2019-06-26T03:57:42.955Z,977.17
2019-06-26T03:58:42.994Z,977.21
2019-06-26T03:59:43.065Z,977.20
2019-06-26T04:00:43.120Z,977.22
2019-06-26T04:01:43.155Z,977.21
2019-06-26T04:02:43.200Z,977.22
2019-06-26T04:03:43.260Z,977.24
2019-06-26T04:04:43.347Z,977.23
2019-06-26T04:05:43.353Z,977.27
2019-06-26T04:06:43.403Z,977.26
2019-06-26T04:07:43.485Z,977.29
2019-06-26T04:08:43.507Z,977.31
2019-06-26T04:09:43.584Z,977.29
2019-06-26T04:10:43.777Z,977.32
2019-06-26T04:11:43.663Z,977.32
2019-06-26T04:12:43.710Z,977.32
2019-06-26T04:13:43.775Z,977.32
2019-06-26T04:14:43.836Z,977.33
2019-06-26T04:15:43.863Z,977.37
2019-06-26T04:16:43.919Z,977.35
2019-06-26T04:17:43.973Z,977.33
2019-06-26T04:18:44.023Z,977.34
2019-06-26T04:19:44.112Z,977.37
2019-06-26T04:20:44.120Z,977.33
2019-06-26T04:21:44.175Z,977.36
2019-06-26T04:22:47.437Z,977.31
2019-06-26T04:23:44.285Z,977.31
2019-06-26T04:24:44.346Z,977.34
2019-06-26T04:25:44.420Z,977.35
2019-06-26T04:26:44.428Z,977.37
2019-06-26T04:27:44.486Z,977.32
2019-06-26T04:28:44.535Z,977.36
2019-06-26T04:29:44.583Z,977.35
2019-06-26T04:30:44.653Z,977.35
2019-06-26T04:31:44.687Z,977.35
2019-06-26T04:32:44.739Z,977.39
2019-06-26T04:33:44.790Z,977.39
2019-06-26T04:34:44.846Z,977.39
2019-06-26T04:35:44.914Z,977.40
2019-06-26T04:36:44.945Z,977.39
2019-06-26T04:37:44.996Z,977.42
2019-06-26T04:38:45.048Z,977.41
2019-06-26T04:39:45.099Z,977.39
2019-06-26T04:40:45.183Z,977.41
2019-06-26T04:41:45.214Z,977.43
2019-06-26T04:42:45.252Z,977.40
2019-06-26T04:43:45.309Z,977.42
2019-06-26T04:44:45.359Z,977.41
2019-06-26T04:45:57.712Z,977.38
2019-06-26T04:46:45.463Z,977.45
2019-06-26T04:47:45.516Z,977.42
2019-06-26T04:48:45.575Z,977.44
2019-06-26T04:49:45.610Z,977.44
2019-06-26T04:50:45.692Z,977.46
2019-06-26T04:51:45.738Z,977.43
2019-06-26T04:52:45.788Z,977.43
2019-06-26T04:53:45.816Z,977.42
2019-06-26T04:54:45.884Z,977.46
2019-06-26T04:55:45.952Z,977.42
2019-06-26T04:56:45.991Z,977.44
2019-06-26T04:57:46.024Z,977.43
2019-06-26T04:58:46.084Z,977.45
2019-06-26T04:59:46.127Z,977.45
2019-06-26T05:00:46.179Z,977.44
2019-06-26T05:01:46.251Z,977.43
2019-06-26T05:02:46.287Z,977.45
2019-06-26T05:03:46.333Z,977.42
2019-06-26T05:04:46.387Z,977.42
2019-06-26T05:05:46.441Z,977.42
2019-06-26T05:06:46.510Z,977.44
2019-06-26T05:07:46.537Z,977.42
2019-06-26T05:08:46.594Z,977.41
2019-06-26T05:09:46.642Z,977.44
2019-06-26T05:10:46.694Z,977.47
2019-06-26T05:11:46.769Z,977.46
2019-06-26T05:12:46.798Z,977.49
2019-06-26T05:13:46.855Z,977.46
2019-06-26T05:14:46.919Z,977.47
2019-06-26T05:15:46.964Z,977.48
2019-06-26T05:16:47.030Z,977.48
2019-06-26T05:17:47.058Z,977.50
2019-06-26T05:18:47.109Z,977.48
2019-06-26T05:19:47.162Z,977.50
2019-06-26T05:20:47.213Z,977.52
2019-06-26T05:21:47.298Z,977.53
2019-06-26T05:22:47.348Z,977.51
2019-06-26T05:23:47.369Z,977.56
2019-06-26T05:24:47.422Z,977.54
2019-06-26T05:25:47.472Z,977.51
2019-06-26T05:26:47.527Z,977.49
2019-06-26T05:27:47.603Z,977.53
2019-06-26T05:28:47.630Z,977.52
2019-06-26T05:29:47.683Z,977.54
2019-06-26T05:30:47.737Z,977.53
2019-06-26T05:31:47.795Z,977.54
2019-06-26T05:32:47.866Z,977.55
2019-06-26T05:33:47.891Z,977.57
2019-06-26T05:34:47.944Z,977.59
2019-06-26T05:35:48.003Z,977.58
2019-06-26T05:36:48.067Z,977.59
2019-06-26T05:37:48.128Z,977.62
2019-06-26T05:38:48.158Z,977.58
2019-06-26T05:39:48.219Z,977.59
2019-06-26T05:40:48.270Z,977.60
2019-06-26T05:41:48.312Z,977.63
2019-06-26T05:42:48.404Z,977.64
2019-06-26T05:43:48.419Z,977.61
2019-06-26T05:44:48.486Z,977.61
2019-06-26T05:45:48.514Z,977.61
2019-06-26T05:46:48.568Z,977.62
2019-06-26T05:47:48.650Z,977.65
2019-06-26T05:48:48.704Z,977.66
2019-06-26T05:49:48.726Z,977.66
2019-06-26T05:50:48.788Z,977.66
2019-06-26T05:51:48.831Z,977.64
2019-06-26T05:52:48.902Z,977.67
2019-06-26T05:53:48.937Z,977.63
2019-06-26T05:54:49.017Z,977.65
2019-06-26T05:55:49.043Z,977.61
2019-06-26T05:56:49.093Z,977.64
2019-06-26T05:57:49.169Z,977.65
2019-06-26T05:58:49.248Z,977.65
2019-06-26T05:59:49.251Z,977.66
2019-06-26T06:00:49.305Z,977.67
2019-06-26T06:01:49.369Z,977.66
2019-06-26T06:02:49.439Z,977.69
2019-06-26T06:03:49.462Z,977.70
2019-06-26T06:04:49.516Z,977.67
2019-06-26T06:05:49.569Z,977.73
2019-06-26T06:06:49.628Z,977.74
2019-06-26T06:07:49.700Z,977.72
2019-06-26T06:08:49.748Z,977.73
2019-06-26T06:09:49.791Z,977.73
2019-06-26T06:10:49.834Z,977.78
2019-06-26T06:11:50.033Z,977.79
2019-06-26T06:12:49.942Z,977.83
2019-06-26T06:13:50.019Z,977.82
2019-06-26T06:14:50.051Z,977.83
2019-06-26T06:15:50.107Z,977.81
2019-06-26T06:16:50.151Z,977.82
2019-06-26T06:17:50.204Z,977.82
2019-06-26T06:18:50.279Z,977.81
2019-06-26T06:19:50.311Z,977.83
2019-06-26T06:20:50.365Z,977.85
2019-06-26T06:21:50.418Z,977.84
2019-06-26T06:22:50.467Z,977.85
2019-06-26T06:23:50.555Z,977.85
2019-06-26T06:24:50.581Z,977.82
2019-06-26T06:25:50.632Z,977.83
2019-06-26T06:26:50.683Z,977.84
2019-06-26T06:27:50.740Z,977.86
2019-06-26T06:28:50.822Z,977.83
2019-06-26T06:29:50.844Z,977.83
2019-06-26T06:30:50.904Z,977.86
2019-06-26T06:31:50.955Z,977.87
2019-06-26T06:32:51.013Z,977.90
2019-06-26T06:33:51.083Z,977.90
2019-06-26T06:34:51.110Z,977.91
2019-06-26T06:35:51.162Z,977.93
2019-06-26T06:36:51.231Z,977.93
2019-06-26T06:37:51.274Z,977.88
2019-06-26T06:38:51.543Z,977.93
2019-06-26T06:39:51.378Z,977.94
2019-06-26T06:40:51.433Z,977.95
2019-06-26T06:41:51.492Z,977.95
2019-06-26T06:42:51.547Z,977.97
2019-06-26T06:43:51.624Z,978.01
2019-06-26T06:44:51.655Z,978.01
2019-06-26T06:45:51.701Z,978.01
2019-06-26T06:47:03.458Z,978.04
2019-06-26T06:47:51.806Z,978.05
2019-06-26T06:48:51.889Z,978.00
2019-06-26T06:49:51.918Z,978.01
2019-06-26T06:50:51.968Z,978.06
2019-06-26T06:51:52.023Z,978.07
2019-06-26T06:52:52.080Z,978.07
2019-06-26T06:53:52.165Z,978.08
2019-06-26T06:54:52.212Z,978.07
2019-06-26T06:55:52.247Z,978.08
2019-06-26T06:56:52.294Z,978.06
2019-06-26T06:57:52.353Z,978.05
2019-06-26T06:58:52.416Z,978.08
2019-06-26T06:59:52.493Z,978.11
2019-06-26T07:00:52.513Z,978.10
2019-06-26T07:01:52.581Z,978.09
2019-06-26T07:02:52.634Z,978.07
2019-06-26T07:03:52.679Z,978.09
2019-06-26T07:04:52.752Z,978.12
2019-06-26T07:05:52.788Z,978.12
2019-06-26T07:06:52.889Z,978.15
2019-06-26T07:07:52.896Z,978.18
2019-06-26T07:08:52.975Z,978.16
2019-06-26T07:09:53.024Z,978.17
2019-06-26T07:10:53.066Z,978.17
2019-06-26T07:11:53.117Z,978.22
2019-06-26T07:12:53.174Z,978.20
2019-06-26T07:13:53.228Z,978.21
2019-06-26T07:14:53.318Z,978.18
2019-06-26T07:15:53.337Z,978.18
2019-06-26T07:16:53.407Z,978.21
2019-06-26T07:17:53.456Z,978.22
2019-06-26T07:18:53.505Z,978.23
2019-06-26T07:19:53.589Z,978.25
2019-06-26T07:20:53.638Z,978.24
2019-06-26T07:21:53.674Z,978.26
2019-06-26T07:22:53.740Z,978.25
2019-06-26T07:23:53.788Z,978.22
2019-06-26T07:24:53.878Z,978.24
2019-06-26T07:25:53.895Z,978.28
2019-06-26T07:26:53.951Z,978.29
2019-06-26T07:27:54.017Z,978.30
2019-06-26T07:28:54.065Z,978.30
2019-06-26T07:29:54.182Z,978.32
2019-06-26T07:30:54.200Z,978.29
2019-06-26T07:31:54.238Z,978.31
2019-06-26T07:32:54.292Z,978.30
2019-06-26T07:33:55.744Z,978.28
2019-06-26T07:34:54.399Z,978.30
2019-06-26T07:35:54.485Z,978.33
2019-06-26T07:36:54.509Z,978.28
2019-06-26T07:37:54.566Z,978.35
2019-06-26T07:38:54.635Z,978.33
2019-06-26T07:40:00.333Z,978.31
2019-06-26T07:40:54.753Z,978.33
2019-06-26T07:41:54.792Z,978.34
2019-06-26T07:42:54.850Z,978.34
2019-06-26T07:43:54.911Z,978.36
2019-06-26T07:44:54.966Z,978.38
2019-06-26T07:45:55.031Z,978.38
2019-06-26T07:46:55.070Z,978.42
2019-06-26T07:47:55.131Z,978.38
2019-06-26T07:48:57.471Z,978.40
2019-06-26T07:49:55.237Z,978.41
2019-06-26T07:50:55.312Z,978.40
2019-06-26T07:51:55.394Z,978.41
2019-06-26T07:52:55.413Z,978.43
2019-06-26T07:53:55.465Z,978.44
2019-06-26T07:54:55.535Z,978.43
2019-06-26T07:55:55.589Z,978.42
2019-06-26T07:56:55.627Z,978.42
2019-06-26T07:57:55.700Z,978.43
2019-06-26T07:58:55.740Z,978.45
2019-06-26T07:59:55.795Z,978.46
2019-06-26T08:00:55.889Z,978.44
2019-06-26T08:01:55.909Z,978.43
2019-06-26T08:02:55.983Z,978.44
2019-06-26T08:03:56.023Z,978.46
2019-06-26T08:04:56.104Z,978.43
2019-06-26T08:05:56.169Z,978.42
2019-06-26T08:06:56.210Z,978.45
2019-06-26T08:07:56.352Z,978.44
2019-06-26T08:08:56.353Z,978.44
2019-06-26T08:09:56.399Z,978.48
2019-06-26T08:10:56.416Z,978.49
2019-06-26T08:11:56.489Z,978.46
2019-06-26T08:12:56.529Z,978.45
2019-06-26T08:13:56.738Z,978.49
2019-06-26T08:14:56.640Z,978.47
2019-06-26T08:15:56.706Z,978.47
2019-06-26T08:16:56.775Z,978.47
2019-06-26T08:18:01.067Z,978.43
2019-06-26T08:18:56.868Z,978.42
2019-06-26T08:19:56.921Z,978.43
2019-06-26T08:21:11.668Z,978.40
2019-06-26T08:21:57.055Z,978.46
2019-06-26T08:22:57.088Z,978.43
2019-06-26T08:23:57.146Z,978.42
2019-06-26T08:24:57.206Z,978.40
2019-06-26T08:25:57.285Z,978.40
2019-06-26T08:26:57.336Z,978.42
2019-06-26T08:27:57.370Z,978.40
2019-06-26T08:28:57.426Z,978.40
2019-06-26T08:29:57.485Z,978.43
2019-06-26T08:30:57.548Z,978.44
2019-06-26T08:31:57.632Z,978.42
2019-06-26T08:32:57.682Z,978.52
2019-06-26T08:33:57.707Z,978.48
2019-06-26T08:34:57.791Z,978.50
2019-06-26T08:35:57.820Z,978.49
2019-06-26T08:36:57.905Z,978.52
2019-06-26T08:38:09.934Z,978.46
2019-06-26T08:38:57.992Z,978.45
2019-06-26T08:39:58.048Z,978.44
2019-06-26T08:40:58.106Z,978.48
2019-06-26T08:41:58.199Z,978.39
2019-06-26T08:42:58.247Z,978.44
2019-06-26T08:43:58.274Z,978.43
2019-06-26T08:44:58.330Z,978.44
2019-06-26T08:45:58.388Z,978.43
2019-06-26T08:46:58.476Z,978.37
2019-06-26T08:47:58.539Z,978.39
2019-06-26T08:48:58.559Z,978.37
2019-06-26T08:49:58.618Z,978.39
2019-06-26T08:50:58.676Z,978.38
2019-06-26T08:51:58.729Z,978.38
2019-06-26T08:52:58.822Z,978.42
2019-06-26T08:53:58.909Z,978.42
2019-06-26T08:54:58.904Z,978.42
2019-06-26T08:55:58.968Z,978.46
2019-06-26T08:56:59.028Z,978.45
2019-06-26T08:57:59.100Z,978.45
2019-06-26T08:58:59.135Z,978.46
2019-06-26T08:59:59.197Z,978.43
2019-06-26T09:00:59.247Z,978.45
2019-06-26T09:01:59.305Z,978.44
2019-06-26T09:02:59.381Z,978.48
2019-06-26T09:03:59.440Z,978.41
2019-06-26T09:04:59.485Z,978.42
2019-06-26T09:05:59.543Z,978.48
2019-06-26T09:06:59.610Z,978.47
2019-06-26T09:07:59.752Z,978.46
2019-06-26T09:08:59.708Z,978.44
2019-06-26T09:09:59.763Z,978.43
2019-06-26T09:10:59.823Z,978.41
2019-06-26T09:11:59.876Z,978.46
2019-06-26T09:12:59.980Z,978.49
2019-06-26T09:14:00.016Z,978.49
2019-06-26T09:15:00.072Z,978.47
2019-06-26T09:16:00.123Z,978.47
2019-06-26T09:17:00.164Z,978.44
2019-06-26T09:18:00.224Z,978.48
2019-06-26T09:19:00.324Z,978.46
2019-06-26T09:20:00.335Z,978.44
2019-06-26T09:21:00.393Z,978.45
2019-06-26T09:22:00.461Z,978.45
2019-06-26T09:23:00.561Z,978.44
2019-06-26T09:24:00.563Z,978.42
2019-06-26T09:25:00.628Z,978.46
2019-06-26T09:26:00.693Z,978.43
2019-06-26T09:27:00.747Z,978.42
2019-06-26T09:28:00.818Z,978.45
2019-06-26T09:29:00.879Z,978.39
2019-06-26T09:30:00.924Z,978.38
2019-06-26T09:31:00.971Z,978.39
2019-06-26T09:32:01.029Z,978.42
2019-06-26T09:33:01.088Z,978.44
2019-06-26T09:34:01.165Z,978.42
2019-06-26T09:35:01.218Z,978.43
2019-06-26T09:36:01.259Z,978.43
2019-06-26T09:37:01.317Z,978.50
2019-06-26T09:38:01.382Z,978.53
2019-06-26T09:39:01.477Z,978.54
2019-06-26T09:40:01.516Z,978.48
2019-06-26T09:41:01.559Z,978.52
2019-06-26T09:42:01.602Z,978.48
2019-06-26T09:43:01.663Z,978.50
2019-06-26T09:44:01.751Z,978.48
2019-06-26T09:45:02.040Z,978.50
2019-06-26T09:46:01.836Z,978.50
2019-06-26T09:47:01.892Z,978.47
2019-06-26T09:48:01.950Z,978.50
2019-06-26T09:49:02.029Z,978.46
2019-06-26T09:50:02.147Z,978.48
2019-06-26T09:51:02.122Z,978.46
2019-06-26T09:52:02.184Z,978.47
2019-06-26T09:53:05.205Z,978.49
2019-06-26T09:54:02.318Z,978.48
2019-06-26T09:55:02.358Z,978.46
2019-06-26T09:56:02.409Z,978.51
2019-06-26T09:57:02.465Z,978.50
2019-06-26T09:58:02.525Z,978.48
2019-06-26T09:59:02.611Z,978.46
2019-06-26T10:00:02.648Z,978.49
2019-06-26T10:01:02.707Z,978.48
2019-06-26T10:02:02.761Z,978.47
2019-06-26T10:03:02.814Z,978.47
2019-06-26T10:04:02.981Z,978.47
2019-06-26T10:05:02.990Z,978.46
2019-06-26T10:06:02.993Z,978.43
2019-06-26T10:07:03.054Z,978.44
2019-06-26T10:08:03.142Z,978.45
2019-06-26T10:09:03.163Z,978.43
2019-06-26T10:10:03.268Z,978.45
2019-06-26T10:11:03.282Z,978.45
2019-06-26T10:12:03.351Z,978.47
2019-06-26T10:13:03.408Z,978.44
2019-06-26T10:14:03.459Z,978.41
2019-06-26T10:15:03.533Z,978.41
2019-06-26T10:16:03.572Z,978.41
2019-06-26T10:17:03.632Z,978.37
2019-06-26T10:18:03.689Z,978.38
2019-06-26T10:19:10.296Z,978.38
2019-06-26T10:20:03.898Z,978.39
2019-06-26T10:21:03.873Z,978.39
2019-06-26T10:22:03.928Z,978.38
2019-06-26T10:23:03.983Z,978.38
2019-06-26T10:24:04.045Z,978.43
2019-06-26T10:25:04.116Z,978.38
2019-06-26T10:26:04.181Z,978.38
2019-06-26T10:27:04.215Z,978.37
2019-06-26T10:28:04.275Z,978.39
2019-06-26T10:29:04.382Z,978.39
2019-06-26T10:30:04.437Z,978.39
2019-06-26T10:31:04.466Z,978.39
2019-06-26T10:32:04.544Z,978.37
2019-06-26T10:33:04.564Z,978.36
2019-06-26T10:34:04.625Z,978.35
2019-06-26T10:35:04.724Z,978.38
2019-06-26T10:36:04.788Z,978.35
2019-06-26T10:37:04.800Z,978.34
2019-06-26T10:38:04.877Z,978.37
2019-06-26T10:39:04.913Z,978.33
2019-06-26T10:40:04.971Z,978.31
2019-06-26T10:41:05.215Z,978.34
2019-06-26T10:42:05.090Z,978.33
2019-06-26T10:43:05.202Z,978.34
2019-06-26T10:44:05.221Z,978.30
2019-06-26T10:45:05.278Z,978.33
2019-06-26T10:46:05.358Z,978.32
2019-06-26T10:47:05.387Z,978.28
2019-06-26T10:48:05.514Z,978.30
2019-06-26T10:49:05.503Z,978.26
2019-06-26T10:50:05.565Z,978.26
2019-06-26T10:51:05.659Z,978.29
2019-06-26T10:52:05.689Z,978.25
2019-06-26T10:53:05.734Z,978.25
2019-06-26T10:54:05.808Z,978.22
2019-06-26T10:55:05.853Z,978.25
2019-06-26T10:56:05.947Z,978.24
2019-06-26T10:57:05.973Z,978.26
2019-06-26T10:58:06.026Z,978.26
2019-06-26T10:59:06.086Z,978.24
2019-06-26T11:00:06.160Z,978.25
2019-06-26T11:01:06.221Z,978.22
2019-06-26T11:02:06.281Z,978.23
2019-06-26T11:03:06.335Z,978.23
2019-06-26T11:04:06.385Z,978.19
2019-06-26T11:05:06.448Z,978.22
2019-06-26T11:06:06.523Z,978.23
2019-06-26T11:07:06.586Z,978.17
2019-06-26T11:08:06.616Z,978.18
2019-06-26T11:09:06.673Z,978.14
2019-06-26T11:10:06.740Z,978.16
2019-06-26T11:11:06.828Z,978.18
2019-06-26T11:12:06.872Z,978.16
2019-06-26T11:13:06.913Z,978.12
2019-06-26T11:14:06.974Z,978.16
2019-06-26T11:15:07.027Z,978.20
2019-06-26T11:16:07.086Z,978.19
2019-06-26T11:17:07.298Z,978.18
2019-06-26T11:18:07.213Z,978.18
2019-06-26T11:19:07.261Z,978.18
2019-06-26T11:20:07.367Z,978.18
2019-06-26T11:21:07.382Z,978.14
2019-06-26T11:22:07.467Z,978.16
2019-06-26T11:23:07.497Z,978.11
2019-06-26T11:24:07.558Z,978.15
2019-06-26T11:25:07.612Z,978.13
2019-06-26T11:26:07.687Z,978.10
2019-06-26T11:27:07.756Z,978.12
2019-06-26T11:28:07.864Z,978.10
2019-06-26T11:29:07.866Z,978.10
2019-06-26T11:30:07.915Z,978.07
2019-06-26T11:31:08.040Z,978.01
2019-06-26T11:32:09.598Z,978.07
2019-06-26T11:33:08.113Z,978.06
2019-06-26T11:34:08.155Z,978.09
2019-06-26T11:35:08.209Z,978.02
2019-06-26T11:36:08.276Z,978.06
2019-06-26T11:37:08.335Z,977.99
2019-06-26T11:38:08.418Z,978.02
2019-06-26T11:39:08.451Z,978.04
2019-06-26T11:40:08.508Z,978.03
2019-06-26T11:41:08.575Z,978.00
2019-06-26T11:42:08.659Z,978.00
2019-06-26T11:43:08.728Z,978.00
2019-06-26T11:44:08.746Z,978.01
2019-06-26T11:45:08.808Z,978.08
2019-06-26T11:46:08.868Z,978.00
2019-06-26T11:47:08.941Z,977.99
2019-06-26T11:48:09.111Z,977.97
2019-06-26T11:49:09.052Z,977.98
2019-06-26T11:50:09.106Z,977.97
2019-06-26T11:51:09.203Z,977.97
2019-06-26T11:52:09.222Z,977.94
2019-06-26T11:53:09.305Z,977.95
2019-06-26T11:54:09.446Z,977.96
2019-06-26T11:55:09.412Z,977.96
2019-06-26T11:56:09.462Z,977.92
2019-06-26T11:57:09.527Z,977.91
2019-06-26T11:58:09.605Z,977.91
2019-06-26T11:59:09.650Z,977.88
2019-06-26T12:00:09.710Z,977.90
2019-06-26T12:01:09.768Z,977.87
2019-06-26T12:02:09.822Z,977.86
2019-06-26T12:03:13.113Z,977.83
2019-06-26T12:04:09.939Z,977.88
2019-06-26T12:05:09.997Z,977.84
2019-06-26T12:06:18.148Z,977.84
2019-06-26T12:07:10.133Z,977.79
2019-06-26T12:08:10.207Z,977.81
2019-06-26T12:09:10.239Z,977.79
2019-06-26T12:10:10.332Z,977.77
2019-06-26T12:11:10.365Z,977.75
2019-06-26T12:12:10.424Z,977.77
2019-06-26T12:13:10.532Z,977.78
2019-06-26T12:14:10.552Z,977.74
2019-06-26T12:15:10.603Z,977.72
2019-06-26T12:16:10.667Z,977.73
2019-06-26T12:17:10.767Z,977.74
2019-06-26T12:18:10.796Z,977.71
2019-06-26T12:19:10.843Z,977.69
2019-06-26T12:20:18.492Z,977.65
2019-06-26T12:21:10.970Z,977.65
2019-06-26T12:22:11.019Z,977.66
2019-06-26T12:23:11.102Z,977.62
2019-06-26T12:24:11.194Z,977.64
2019-06-26T12:25:11.206Z,977.63
2019-06-26T12:26:11.263Z,977.60
2019-06-26T12:27:11.323Z,977.62
2019-06-26T12:28:11.394Z,977.62
2019-06-26T12:29:11.469Z,977.66